»·PEaware :: N2MZ KSAN-KCRQ

N2MZ :: KSAN-KCRQ

FLIGHT INFORMATION

Flight Status: Arrived
Operator: Privately registered:
United States
More flights under this callsign
Pilot: Mike Z. (25595)
Aircraft: CESSNA 172 SKYHAWK
(C172)
More flights by this aircraft type
Origin: KSAN San Diego Intl-Lindbergh
United States
Destination: KCRQ McClellan-Palomar
United States
More flights between these airports :: More routes between these airports
Route: +OCN
File this flight plan on PilotEdge
Remarks:
Altitude:
(Current/Filed)
3,000ft
Speed:
(Current/Filed)
115kts
Departed: 20-Oct-19 11:08 AM
Arrived: 20-Oct-19 11:40 AM
Distance/Time
Traveled:
24nm/0:32
Distance/Time
To Go:
Arrived

Flight Plot

Page will automatically refresh every two minutes.


Map Options




Map Legend


Flown Route
Filed Route
Departure Airport
Arrival Airport
Navaid (VOR, NDB)
Fix

Horizontal Profiles

Position Reports

Time Latitude Longitude Heading Altitude Ground
Speed
20-Oct-19 10:45 32.732420 -117.176641 194 22ft 0kts
20-Oct-19 10:46 32.732420 -117.176641 194 22ft 0kts
20-Oct-19 10:50 32.732420 -117.176641 194 22ft 0kts
20-Oct-19 10:51 32.732420 -117.176641 194 22ft 0kts
20-Oct-19 10:52 32.732420 -117.176641 193 22ft 0kts
20-Oct-19 10:53 32.732420 -117.176641 193 22ft 0kts
20-Oct-19 10:54 32.732420 -117.176641 193 22ft 0kts
20-Oct-19 10:55 32.732420 -117.176641 193 22ft 0kts
20-Oct-19 10:56 32.732420 -117.176641 193 22ft 0kts
20-Oct-19 10:57 32.732420 -117.176641 193 22ft 0kts
20-Oct-19 10:58 32.732420 -117.176641 193 22ft 0kts
20-Oct-19 10:59 32.732420 -117.176641 193 22ft 0kts
20-Oct-19 11:00 32.732420 -117.176641 193 22ft 0kts
20-Oct-19 11:01 32.732420 -117.176641 193 22ft 0kts
20-Oct-19 11:02 32.732391 -117.176649 190 22ft 7kts
20-Oct-19 11:03 32.730883 -117.175108 181 22ft 0kts
20-Oct-19 11:04 32.730883 -117.175108 181 22ft 0kts
20-Oct-19 11:05 32.730883 -117.175108 181 22ft 0kts
20-Oct-19 11:06 32.730819 -117.175108 178 22ft 10kts
20-Oct-19 11:07 32.733991 -117.193067 282 358ft 78kts
20-Oct-19 11:08 32.745653 -117.212913 322 1053ft 79kts
20-Oct-19 11:09 32.762925 -117.229162 325 1725ft 79kts
20-Oct-19 11:10 32.780750 -117.244850 322 2358ft 77kts
20-Oct-19 11:11 32.798609 -117.260238 324 2931ft 80kts
20-Oct-19 11:12 32.815891 -117.275643 325 3506ft 77kts
20-Oct-19 11:13 32.833942 -117.290214 322 4008ft 83kts
20-Oct-19 11:14 32.857287 -117.311629 325 3964ft 120kts
20-Oct-19 11:15 32.883198 -117.333643 324 3998ft 112kts
20-Oct-19 11:16 32.909044 -117.354409 337 3998ft 112kts
20-Oct-19 11:17 32.938206 -117.367785 341 3998ft 112kts
20-Oct-19 11:18 32.967903 -117.379385 342 3998ft 112kts
20-Oct-19 11:19 32.997555 -117.390916 342 3998ft 112kts
20-Oct-19 11:20 33.027643 -117.400674 356 3998ft 112kts
20-Oct-19 11:21 33.059411 -117.402199 357 3916ft 116kts
20-Oct-19 11:22 33.092157 -117.404696 355 3818ft 118kts
20-Oct-19 11:23 33.124679 -117.407391 356 3719ft 118kts
20-Oct-19 11:24 33.157656 -117.410216 355 3620ft 119kts
20-Oct-19 11:25 33.191133 -117.413395 354 3449ft 122kts
20-Oct-19 11:26 33.225657 -117.417509 354 3193ft 125kts
20-Oct-19 11:27 33.243899 -117.440897 277 3002ft 109kts
20-Oct-19 11:28 33.239582 -117.468965 172 3030ft 101kts
20-Oct-19 11:29 33.237268 -117.437568 59 3084ft 126kts
20-Oct-19 11:30 33.236612 -117.409686 136 2443ft 93kts
20-Oct-19 11:31 33.216121 -117.389925 136 1542ft 98kts
20-Oct-19 11:32 33.199431 -117.370805 141 1372ft 87kts
20-Oct-19 11:33 33.182737 -117.349304 135 1313ft 83kts
20-Oct-19 11:35 33.167227 -117.329843 134 1224ft 82kts
20-Oct-19 11:36 33.150839 -117.309446 134 1259ft 87kts
20-Oct-19 11:37 33.137133 -117.289090 91 1068ft 82kts
20-Oct-19 11:38 33.139110 -117.263330 125 1026ft 76kts
20-Oct-19 11:39 33.128827 -117.276481 260 337ft 63kts
20-Oct-19 11:40 33.126933 -117.283157 132 335ft 4kts
20-Oct-19 11:41 33.128074 -117.275747 114 335ft 18kts
20-Oct-19 11:42 33.127719 -117.275281 161 335ft 0kts

Navigation Log

Ident Type
Flight plan parsing failed, navigation log unavailable